Terminal Aerodrome Forecast
Issued by NWS

Home | Current Version | Previous Version | Text Only | Print | Product List | Glossary On
Versions: 1 2 3 4 5 6 7 8 9 10 11 12 13 14 15 16 17 18 19 20 21 22 23
000
FTUS45 KREV 180500
TAFTVL
TAF
KTVL 180520Z 1806/1906 VRB03KT P6SM SKC
     FM181900 04007KT P6SM SCT080 SCT250
     FM182200 05009KT P6SM SCT080 BKN250
     FM190200 VRB04KT P6SM FEW080 SCT250=

USA.gov is the U.S. government's official web portal to all federal, state and local government web resources and services.